createdAt,value
2023-01-30T00:01:19.885Z,101090.63
2023-01-30T00:03:47.257Z,101098.69
2023-01-30T00:06:14.543Z,101093.59
2023-01-30T00:08:41.428Z,101098.69
2023-01-30T00:11:11.688Z,101105.50
2023-01-30T00:13:40.429Z,101107.66
2023-01-30T00:16:09.803Z,101097.63
2023-01-30T00:18:38.628Z,101095.69
2023-01-30T00:21:08.423Z,101095.97
2023-01-30T00:23:36.961Z,101096.88
2023-01-30T00:26:05.021Z,101090.38
2023-01-30T00:28:32.501Z,101092.09
2023-01-30T00:30:59.578Z,101089.59
2023-01-30T00:33:27.758Z,101081.25
2023-01-30T00:35:56.893Z,101086.91
2023-01-30T00:38:24.452Z,101083.47
2023-01-30T00:40:51.298Z,101087.97
2023-01-30T00:43:38.867Z,101069.38
2023-01-30T00:46:33.180Z,101078.00
2023-01-30T00:49:00.109Z,101077.84
2023-01-30T00:51:27.137Z,101071.13
2023-01-30T00:53:54.305Z,101068.31
2023-01-30T00:56:21.219Z,101071.44
2023-01-30T00:58:48.676Z,101067.56
2023-01-30T01:01:15.650Z,101072.09
2023-01-30T01:03:43.653Z,101063.50
2023-01-30T01:06:11.089Z,101069.97
2023-01-30T01:08:38.231Z,101071.69
2023-01-30T01:11:05.282Z,101064.25
2023-01-30T01:13:33.247Z,101060.75
2023-01-30T01:16:00.259Z,101060.56
2023-01-30T01:18:27.295Z,101062.69
2023-01-30T01:20:54.447Z,101053.72
2023-01-30T01:23:21.518Z,101053.38
2023-01-30T01:25:50.054Z,101049.94
2023-01-30T01:28:21.787Z,101057.50
2023-01-30T01:30:48.723Z,101038.25
2023-01-30T01:33:15.860Z,101047.72
2023-01-30T01:35:43.039Z,101051.38
2023-01-30T01:38:10.373Z,101051.53
2023-01-30T01:40:57.839Z,101057.88
2023-01-30T01:43:26.031Z,101052.19
2023-01-30T01:45:58.162Z,101046.25
2023-01-30T01:48:40.636Z,101045.81
2023-01-30T01:51:21.203Z,101049.19
2023-01-30T01:53:58.831Z,101041.78
2023-01-30T01:56:26.243Z,101037.34
2023-01-30T01:58:58.231Z,101049.34
2023-01-30T02:01:25.270Z,101046.66
2023-01-30T02:03:58.899Z,101043.19
2023-01-30T02:06:25.980Z,101039.78
2023-01-30T02:09:00.328Z,101037.34
2023-01-30T02:11:34.928Z,101039.56
2023-01-30T02:14:06.063Z,101035.06
2023-01-30T02:16:34.355Z,101031.34
2023-01-30T02:19:11.541Z,101031.00
2023-01-30T02:21:57.238Z,101036.19
2023-01-30T02:24:48.156Z,101038.38
2023-01-30T02:27:34.131Z,101032.63
2023-01-30T02:30:39.384Z,101030.59
2023-01-30T02:33:09.536Z,101029.34
2023-01-30T02:35:36.345Z,101027.00
2023-01-30T02:38:21.448Z,101022.84
2023-01-30T02:41:07.088Z,101035.31
2023-01-30T02:44:04.375Z,101027.91
2023-01-30T02:46:55.505Z,101027.13
2023-01-30T02:49:41.085Z,101032.34
2023-01-30T02:52:11.688Z,101029.41
2023-01-30T02:54:38.575Z,101028.50
2023-01-30T02:57:21.579Z,101030.75
2023-01-30T02:59:59.512Z,101025.13
2023-01-30T03:02:52.125Z,101032.44
2023-01-30T03:05:53.787Z,101025.28
2023-01-30T03:08:59.135Z,101022.88
2023-01-30T03:28:02.534Z,101026.63
2023-01-30T03:30:29.950Z,101016.16
2023-01-30T03:33:06.648Z,101025.34
2023-01-30T03:35:36.445Z,101015.06
2023-01-30T03:38:03.541Z,101020.03
2023-01-30T03:40:30.640Z,101021.53
2023-01-30T03:42:58.674Z,101015.41
2023-01-30T03:45:26.451Z,101024.44
2023-01-30T03:47:53.570Z,101017.63
2023-01-30T03:50:20.445Z,101017.41
2023-01-30T03:52:47.689Z,101018.09
2023-01-30T03:55:18.442Z,101010.28
2023-01-30T03:57:45.562Z,101011.34
2023-01-30T04:00:13.056Z,101013.84
2023-01-30T04:02:50.460Z,101003.34
2023-01-30T04:05:18.780Z,101001.84
2023-01-30T04:07:57.074Z,101000.69
2023-01-30T04:10:25.393Z,101005.25
2023-01-30T04:12:52.465Z,101003.25
2023-01-30T04:15:20.655Z,101009.38
2023-01-30T04:18:19.052Z,101005.13
2023-01-30T04:20:50.310Z,101006.78
2023-01-30T04:23:22.316Z,101015.53
2023-01-30T04:25:50.685Z,101007.75
2023-01-30T04:28:19.909Z,101012.81
2023-01-30T04:30:47.594Z,101012.44
2023-01-30T04:33:35.573Z,101008.81
2023-01-30T04:36:05.269Z,101015.53
2023-01-30T04:38:33.215Z,101005.66
2023-01-30T04:41:01.155Z,101010.56
2023-01-30T04:43:31.086Z,101017.16
2023-01-30T04:46:17.547Z,101013.97
2023-01-30T04:48:44.759Z,101005.16
2023-01-30T04:51:11.666Z,101013.63
2023-01-30T04:53:38.874Z,101009.06
2023-01-30T04:56:06.739Z,100998.72
2023-01-30T04:58:33.611Z,101006.34
2023-01-30T05:01:37.341Z,101003.63
2023-01-30T05:04:06.023Z,101005.53
2023-01-30T05:06:34.764Z,101005.41
2023-01-30T05:09:02.097Z,100999.44
2023-01-30T05:11:30.632Z,101009.44
2023-01-30T05:13:58.583Z,101002.63
2023-01-30T05:16:25.628Z,100999.53
2023-01-30T05:18:52.931Z,101007.19
2023-01-30T05:21:22.685Z,101008.63
2023-01-30T05:23:51.043Z,101007.19
2023-01-30T05:26:18.002Z,101009.09
2023-01-30T05:28:44.964Z,101001.06
2023-01-30T05:31:13.863Z,101000.50
2023-01-30T05:33:41.193Z,101003.31
2023-01-30T05:36:13.582Z,101007.19
2023-01-30T05:38:40.424Z,101004.63
2023-01-30T05:41:08.792Z,101003.69
2023-01-30T05:43:35.768Z,101008.28
2023-01-30T05:46:04.643Z,101011.56
2023-01-30T05:48:32.957Z,101004.59
2023-01-30T05:51:00.305Z,101015.41
2023-01-30T05:53:30.240Z,101008.25
2023-01-30T05:55:59.126Z,101018.13
2023-01-30T05:58:27.530Z,101008.03
2023-01-30T06:00:54.584Z,101014.38
2023-01-30T06:03:21.657Z,101005.53
2023-01-30T06:05:48.553Z,101009.91
2023-01-30T06:08:15.534Z,101005.16
2023-01-30T06:10:42.472Z,101008.81
2023-01-30T06:13:11.177Z,101013.91
2023-01-30T06:15:38.399Z,101010.47
2023-01-30T06:18:05.587Z,101004.59
2023-01-30T06:20:32.501Z,101006.06
2023-01-30T06:22:59.300Z,101011.88
2023-01-30T06:25:27.406Z,101006.66
2023-01-30T06:27:54.432Z,101003.72
2023-01-30T06:30:21.563Z,101003.84
2023-01-30T06:32:52.049Z,100996.09
2023-01-30T06:35:19.496Z,100996.59
2023-01-30T06:37:46.686Z,100997.09
2023-01-30T06:40:13.879Z,100998.72
2023-01-30T06:42:48.287Z,100997.31
2023-01-30T06:45:18.984Z,101002.25
2023-01-30T06:47:54.686Z,100988.59
2023-01-30T06:50:24.951Z,100986.97
2023-01-30T06:52:53.339Z,100995.31
2023-01-30T06:55:23.026Z,100995.91
2023-01-30T06:57:50.829Z,100988.47
2023-01-30T07:00:20.118Z,100995.16
2023-01-30T07:02:47.646Z,100994.72
2023-01-30T07:05:14.731Z,100990.66
2023-01-30T07:07:41.757Z,100985.72
2023-01-30T07:10:09.528Z,100989.25
2023-01-30T07:12:37.047Z,100982.97
2023-01-30T07:15:05.615Z,100983.13
2023-01-30T07:17:33.222Z,100986.03
2023-01-30T07:20:00.170Z,100983.22
2023-01-30T07:22:27.069Z,100989.88
2023-01-30T07:24:54.000Z,100984.88
2023-01-30T07:27:20.979Z,100985.09
2023-01-30T07:29:47.787Z,100987.91
2023-01-30T07:32:18.433Z,100985.25
2023-01-30T07:34:45.911Z,100975.31
2023-01-30T07:37:13.014Z,100981.06
2023-01-30T07:39:39.867Z,100980.84
2023-01-30T07:42:07.031Z,100985.38
2023-01-30T07:44:34.562Z,100981.56
2023-01-30T07:47:01.838Z,100976.03
2023-01-30T07:49:29.004Z,100976.19
2023-01-30T07:51:55.942Z,100969.75
2023-01-30T07:54:23.086Z,100985.50
2023-01-30T07:56:49.938Z,100980.41
2023-01-30T07:59:16.837Z,100985.66
2023-01-30T08:01:43.714Z,100976.41
2023-01-30T08:04:10.592Z,100966.59
2023-01-30T08:06:39.412Z,100973.88
2023-01-30T08:09:07.421Z,100968.72
2023-01-30T08:11:34.981Z,100961.50
2023-01-30T08:14:02.166Z,100963.84
2023-01-30T08:16:29.156Z,100961.91
2023-01-30T08:18:56.036Z,100959.25
2023-01-30T08:21:22.956Z,100962.59
2023-01-30T08:23:49.868Z,100957.00
2023-01-30T08:26:16.962Z,100952.91
2023-01-30T08:28:43.897Z,100937.81
2023-01-30T08:31:13.394Z,100950.25
2023-01-30T08:33:40.381Z,100941.22
2023-01-30T08:36:07.661Z,100942.72
2023-01-30T08:38:34.560Z,100933.50
2023-01-30T08:41:04.122Z,100937.75
2023-01-30T08:43:31.017Z,100925.81
2023-01-30T08:45:57.906Z,100924.66
2023-01-30T08:48:24.832Z,100920.38
2023-01-30T08:50:55.811Z,100919.59
2023-01-30T08:53:23.441Z,100904.31
2023-01-30T08:55:53.997Z,100907.81
2023-01-30T08:58:22.075Z,100906.16
2023-01-30T09:00:50.550Z,100910.78
2023-01-30T09:03:18.644Z,100898.97
2023-01-30T09:05:46.024Z,100897.38
2023-01-30T09:08:14.116Z,100899.84
2023-01-30T09:10:40.917Z,100895.09
2023-01-30T09:13:09.821Z,100887.75
2023-01-30T09:15:36.959Z,100879.59
2023-01-30T09:18:05.103Z,100879.44
2023-01-30T09:20:32.233Z,100880.84
2023-01-30T09:22:59.509Z,100874.59
2023-01-30T09:25:26.364Z,100866.09
2023-01-30T09:27:53.218Z,100863.91
2023-01-30T09:30:20.510Z,100851.75
2023-01-30T09:32:48.403Z,100856.78
2023-01-30T09:35:15.448Z,100851.84
2023-01-30T09:37:52.639Z,100844.31
2023-01-30T09:40:26.660Z,100843.72
2023-01-30T09:43:08.458Z,100843.91
2023-01-30T09:45:47.445Z,100833.84
2023-01-30T09:48:54.940Z,100837.13
2023-01-30T09:51:35.768Z,100828.69
2023-01-30T09:54:22.215Z,100829.75
2023-01-30T09:57:22.728Z,100817.06
2023-01-30T09:59:57.730Z,100815.16
2023-01-30T10:02:37.275Z,100807.81
2023-01-30T10:05:05.272Z,100803.06
2023-01-30T10:07:52.425Z,100794.97
2023-01-30T10:10:55.110Z,100794.09
2023-01-30T10:13:49.564Z,100792.28
2023-01-30T10:16:41.715Z,100784.75
2023-01-30T10:19:11.449Z,100773.84
2023-01-30T10:22:20.497Z,100769.50
2023-01-30T10:25:02.206Z,100770.59
2023-01-30T10:27:31.245Z,100762.34
2023-01-30T10:30:02.707Z,100763.22
2023-01-30T10:32:30.329Z,100753.66
2023-01-30T10:35:02.753Z,100745.31
2023-01-30T10:37:42.765Z,100737.16
2023-01-30T10:40:33.723Z,100735.66
2023-01-30T10:43:19.186Z,100736.59
2023-01-30T10:45:58.193Z,100729.44
2023-01-30T10:48:43.215Z,100730.97
2023-01-30T10:51:34.849Z,100708.25
2023-01-30T10:54:19.275Z,100716.09
2023-01-30T10:56:57.436Z,100707.31
2023-01-30T10:59:50.927Z,100700.13
2023-01-30T11:02:36.246Z,100699.78
2023-01-30T11:05:13.239Z,100694.03
2023-01-30T11:07:42.250Z,100688.34
2023-01-30T11:10:19.283Z,100683.16
2023-01-30T11:12:46.927Z,100678.34
2023-01-30T11:15:13.818Z,100678.88
2023-01-30T11:17:43.246Z,100671.19
2023-01-30T11:20:20.427Z,100668.69
2023-01-30T11:23:12.814Z,100658.28
2023-01-30T11:26:05.507Z,100646.66
2023-01-30T11:28:42.384Z,100637.19
2023-01-30T11:31:42.114Z,100635.38
2023-01-30T11:34:16.311Z,100624.31
2023-01-30T11:36:43.547Z,100639.09
2023-01-30T11:39:13.484Z,100636.00
2023-01-30T11:41:56.917Z,100622.63
2023-01-30T11:44:27.815Z,100617.97
2023-01-30T11:46:58.144Z,100618.50
2023-01-30T11:49:46.432Z,100615.59
2023-01-30T11:52:24.448Z,100605.13
2023-01-30T11:54:52.348Z,100601.22
2023-01-30T11:57:20.606Z,100603.56
2023-01-30T11:59:55.333Z,100597.81
2023-01-30T12:02:36.375Z,100590.63
2023-01-30T12:05:19.467Z,100589.75
2023-01-30T12:07:49.116Z,100590.66
2023-01-30T12:10:25.378Z,100584.72
2023-01-30T12:12:55.468Z,100585.84
2023-01-30T12:15:27.611Z,100578.97
2023-01-30T12:17:57.461Z,100580.00
2023-01-30T12:20:36.161Z,100572.66
2023-01-30T12:23:15.233Z,100564.00
2023-01-30T12:26:10.764Z,100576.22
2023-01-30T12:28:40.474Z,100567.66
2023-01-30T12:31:39.663Z,100570.50
2023-01-30T12:34:09.848Z,100567.44
2023-01-30T12:36:56.818Z,100562.03
2023-01-30T12:39:42.009Z,100546.13
2023-01-30T12:42:33.551Z,100550.97
2023-01-30T12:45:15.627Z,100547.88
2023-01-30T12:48:00.640Z,100547.38
2023-01-30T12:50:45.666Z,100540.91
2023-01-30T12:53:44.528Z,100538.00
2023-01-30T12:56:46.941Z,100531.06
2023-01-30T12:59:59.709Z,100530.81
2023-01-30T13:02:38.640Z,100531.91
2023-01-30T13:05:17.479Z,100533.03
2023-01-30T13:08:41.505Z,100517.59
2023-01-30T13:11:48.515Z,100527.47
2023-01-30T13:14:55.878Z,100518.00
2023-01-30T13:17:50.587Z,100528.41
2023-01-30T13:20:23.133Z,100525.97
2023-01-30T13:23:10.194Z,100522.72
2023-01-30T13:25:42.333Z,100513.47
2023-01-30T13:28:39.804Z,100519.50
2023-01-30T13:31:12.883Z,100515.44
2023-01-30T13:33:44.805Z,100512.16
2023-01-30T13:36:11.706Z,100508.59
2023-01-30T13:38:49.923Z,100512.66
2023-01-30T13:41:18.869Z,100509.94
2023-01-30T13:43:51.794Z,100496.03
2023-01-30T13:46:24.720Z,100497.97
2023-01-30T13:49:03.538Z,100497.94
2023-01-30T13:51:49.595Z,100488.97
2023-01-30T13:54:37.861Z,100497.69
2023-01-30T13:57:13.843Z,100489.78
2023-01-30T14:00:12.893Z,100475.09
2023-01-30T14:03:08.495Z,100475.88
2023-01-30T14:05:59.147Z,100477.25
2023-01-30T14:09:01.626Z,100474.28
2023-01-30T14:11:44.924Z,100473.19
2023-01-30T14:14:29.477Z,100460.63
2023-01-30T14:17:08.525Z,100466.09
2023-01-30T14:19:45.697Z,100468.81
2023-01-30T14:22:42.510Z,100465.00
2023-01-30T14:25:27.926Z,100457.66
2023-01-30T14:28:17.904Z,100460.09
2023-01-30T14:30:44.737Z,100456.84
2023-01-30T14:33:20.813Z,100462.53
2023-01-30T14:35:49.800Z,100450.56
2023-01-30T14:38:19.553Z,100447.84
2023-01-30T14:43:53.105Z,100442.13
2023-01-30T14:46:20.580Z,100449.47
2023-01-30T14:49:05.267Z,100444.81
2023-01-30T14:51:35.849Z,100445.66
2023-01-30T14:54:14.959Z,100451.34
2023-01-30T14:56:54.383Z,100448.91
2023-01-30T14:59:24.509Z,100447.53
2023-01-30T15:02:04.895Z,100445.09
2023-01-30T15:04:40.151Z,100440.16
2023-01-30T15:07:19.029Z,100433.38
2023-01-30T15:10:24.021Z,100426.03
2023-01-30T15:13:06.227Z,100431.72
2023-01-30T15:30:17.231Z,100439.69
2023-01-30T15:32:44.909Z,100441.63
2023-01-30T15:35:11.953Z,100437.03
2023-01-30T15:37:51.960Z,100444.41
2023-01-30T15:40:25.913Z,100436.28
2023-01-30T15:43:02.339Z,100436.56
2023-01-30T15:45:48.076Z,100427.59
2023-01-30T15:48:41.520Z,100434.94
2023-01-30T15:51:13.313Z,100439.28
2023-01-30T15:53:44.327Z,100435.72
2023-01-30T15:56:20.724Z,100438.72
2023-01-30T15:58:47.715Z,100435.94
2023-01-30T16:01:20.132Z,100426.72
2023-01-30T16:03:50.117Z,100425.81
2023-01-30T16:06:43.462Z,100439.44
2023-01-30T16:09:22.387Z,100432.38
2023-01-30T16:11:50.563Z,100434.28
2023-01-30T16:14:20.087Z,100434.78
2023-01-30T16:16:50.258Z,100425.50
2023-01-30T16:19:32.644Z,100420.09
2023-01-30T16:22:03.312Z,100423.94
2023-01-30T16:24:33.233Z,100422.56
2023-01-30T16:27:08.175Z,100425.03
2023-01-30T16:29:51.261Z,100431.06
2023-01-30T16:32:25.036Z,100417.94
2023-01-30T16:35:11.828Z,100422.31
2023-01-30T16:37:38.626Z,100420.94
2023-01-30T16:40:11.274Z,100423.94
2023-01-30T16:42:38.252Z,100411.44
2023-01-30T16:45:14.236Z,100402.75
2023-01-30T16:47:41.251Z,100403.84
2023-01-30T16:50:20.431Z,100402.44
2023-01-30T16:52:51.770Z,100401.66
2023-01-30T16:55:22.633Z,100396.75
2023-01-30T16:58:00.171Z,100397.56
2023-01-30T17:00:41.098Z,100404.63
2023-01-30T17:03:31.761Z,100402.47
2023-01-30T17:05:59.743Z,100398.94
2023-01-30T17:08:55.823Z,100387.00
2023-01-30T17:11:30.943Z,100389.44
2023-01-30T17:14:16.750Z,100390.78
2023-01-30T17:16:46.239Z,100389.41
2023-01-30T17:19:14.504Z,100385.34
2023-01-30T17:21:51.068Z,100385.34
2023-01-30T17:24:21.315Z,100382.09
2023-01-30T17:26:50.845Z,100386.47
2023-01-30T17:29:41.016Z,100380.75
2023-01-30T17:32:11.872Z,100376.94
2023-01-30T17:34:41.302Z,100377.44
2023-01-30T17:37:18.328Z,100373.63
2023-01-30T17:39:45.374Z,100373.06
2023-01-30T17:42:15.102Z,100378.28
2023-01-30T17:44:42.200Z,100371.44
2023-01-30T17:47:12.556Z,100364.88
2023-01-30T17:49:40.201Z,100372.44
2023-01-30T17:52:07.288Z,100362.91
2023-01-30T17:54:34.619Z,100356.91
2023-01-30T17:57:09.734Z,100357.94
2023-01-30T17:59:36.865Z,100352.22
2023-01-30T18:02:04.506Z,100343.56
2023-01-30T18:04:31.306Z,100339.22
2023-01-30T18:07:04.892Z,100342.78
2023-01-30T18:09:32.306Z,100343.88
2023-01-30T18:11:59.303Z,100342.56
2023-01-30T18:14:26.130Z,100342.84
2023-01-30T18:16:55.998Z,100343.09
2023-01-30T18:19:24.239Z,100329.75
2023-01-30T18:21:51.268Z,100326.53
2023-01-30T18:24:18.616Z,100324.88
2023-01-30T18:26:46.084Z,100313.72
2023-01-30T18:29:13.457Z,100321.53
2023-01-30T18:31:41.501Z,100319.38
2023-01-30T18:34:10.609Z,100324.44
2023-01-30T18:36:38.385Z,100323.34
2023-01-30T18:39:06.246Z,100311.34
2023-01-30T18:41:35.255Z,100307.81
2023-01-30T18:44:04.783Z,100305.56
2023-01-30T18:46:32.603Z,100314.53
2023-01-30T18:48:59.847Z,100312.59
2023-01-30T18:51:33.987Z,100302.25
2023-01-30T18:54:01.957Z,100297.88
2023-01-30T18:56:34.163Z,100308.47
2023-01-30T18:59:04.268Z,100303.31
2023-01-30T19:01:38.837Z,100289.94
2023-01-30T19:04:07.039Z,100288.03
2023-01-30T19:06:37.597Z,100287.72
2023-01-30T19:09:05.516Z,100289.84
2023-01-30T19:11:50.808Z,100281.13
2023-01-30T19:14:17.820Z,100282.25
2023-01-30T19:16:44.734Z,100280.31
2023-01-30T19:19:11.791Z,100275.66
2023-01-30T19:21:39.051Z,100276.19
2023-01-30T19:24:08.256Z,100271.06
2023-01-30T19:26:35.456Z,100274.00
2023-01-30T19:29:02.373Z,100278.06
2023-01-30T19:31:29.465Z,100275.31
2023-01-30T19:33:59.292Z,100271.34
2023-01-30T19:36:27.740Z,100267.59
2023-01-30T19:38:55.071Z,100265.38
2023-01-30T19:41:24.624Z,100261.28
2023-01-30T19:43:53.435Z,100259.88
2023-01-30T19:46:20.729Z,100257.94
2023-01-30T19:48:49.056Z,100267.72
2023-01-30T19:51:20.579Z,100261.16
2023-01-30T19:54:01.337Z,100261.94
2023-01-30T19:56:29.705Z,100260.59
2023-01-30T19:58:58.686Z,100259.28
2023-01-30T20:01:29.707Z,100260.63
2023-01-30T20:03:57.193Z,100253.56
2023-01-30T20:06:26.804Z,100269.75
2023-01-30T20:08:56.437Z,100265.72
2023-01-30T20:11:23.508Z,100261.09
2023-01-30T20:13:51.540Z,100253.81
2023-01-30T20:16:21.711Z,100246.50
2023-01-30T20:18:54.300Z,100261.69
2023-01-30T20:21:22.648Z,100262.72
2023-01-30T20:23:50.446Z,100250.50
2023-01-30T20:26:23.062Z,100252.69
2023-01-30T20:28:50.303Z,100256.16
2023-01-30T20:31:20.060Z,100247.97
2023-01-30T20:33:47.520Z,100256.47
2023-01-30T20:36:17.786Z,100259.16
2023-01-30T20:38:45.488Z,100257.53
2023-01-30T20:41:15.372Z,100262.91
2023-01-30T20:43:49.091Z,100265.63
2023-01-30T20:46:18.873Z,100257.44
2023-01-30T20:48:46.317Z,100257.75
2023-01-30T20:51:16.030Z,100259.06
2023-01-30T20:53:48.442Z,100248.47
2023-01-30T20:56:15.520Z,100259.31
2023-01-30T20:58:42.515Z,100250.78
2023-01-30T21:01:18.011Z,100253.47
2023-01-30T21:03:50.655Z,100256.06
2023-01-30T21:06:37.173Z,100254.63
2023-01-30T21:09:08.792Z,100250.06
2023-01-30T21:11:40.860Z,100260.66
2023-01-30T21:14:12.122Z,100261.47
2023-01-30T21:16:39.746Z,100257.88
2023-01-30T21:19:11.139Z,100255.88
2023-01-30T21:22:07.595Z,100249.22
2023-01-30T21:24:34.563Z,100246.44
2023-01-30T21:27:01.883Z,100244.22
2023-01-30T21:29:29.478Z,100240.16
2023-01-30T21:31:57.700Z,100239.63
2023-01-30T21:34:24.641Z,100235.84
2023-01-30T21:37:09.992Z,100231.41
2023-01-30T21:39:55.837Z,100235.78
2023-01-30T21:42:41.087Z,100234.94
2023-01-30T21:45:08.587Z,100233.75
2023-01-30T21:47:35.449Z,100227.53
2023-01-30T21:50:02.454Z,100222.34
2023-01-30T21:52:32.042Z,100213.59
2023-01-30T21:54:59.392Z,100216.91
2023-01-30T21:57:26.172Z,100212.28
2023-01-30T21:59:53.085Z,100213.38
2023-01-30T22:02:20.137Z,100216.63
2023-01-30T22:04:47.080Z,100218.28
2023-01-30T22:07:14.179Z,100216.56
2023-01-30T22:09:41.134Z,100220.41
2023-01-30T22:12:08.059Z,100215.31
2023-01-30T22:14:36.361Z,100218.81
2023-01-30T22:17:03.514Z,100215.03
2023-01-30T22:19:35.468Z,100207.75
2023-01-30T22:22:02.909Z,100210.91
2023-01-30T22:24:29.968Z,100205.06
2023-01-30T22:26:57.138Z,100204.25
2023-01-30T22:29:24.023Z,100197.16
2023-01-30T22:31:51.432Z,100201.19
2023-01-30T22:34:18.523Z,100192.50
2023-01-30T22:36:45.441Z,100187.44
2023-01-30T22:39:12.337Z,100191.97
2023-01-30T22:41:39.694Z,100186.31
2023-01-30T22:44:09.337Z,100183.38
2023-01-30T22:46:38.693Z,100181.66
2023-01-30T22:49:06.948Z,100172.72
2023-01-30T22:51:39.485Z,100178.13
2023-01-30T22:54:12.753Z,100170.47
2023-01-30T22:56:42.067Z,100173.16
2023-01-30T22:59:09.659Z,100166.56
2023-01-30T23:01:42.109Z,100166.06
2023-01-30T23:04:14.837Z,100158.25
2023-01-30T23:06:42.893Z,100156.09
2023-01-30T23:09:13.572Z,100159.84
2023-01-30T23:12:10.407Z,100157.38
2023-01-30T23:14:38.238Z,100153.03
2023-01-30T23:17:25.690Z,100148.13
2023-01-30T23:19:53.898Z,100151.41
2023-01-30T23:22:20.926Z,100146.84
2023-01-30T23:24:48.812Z,100153.03
2023-01-30T23:27:15.812Z,100148.75
2023-01-30T23:29:43.080Z,100144.31
2023-01-30T23:32:10.026Z,100146.13
2023-01-30T23:34:37.056Z,100139.13
2023-01-30T23:37:03.881Z,100140.78
2023-01-30T23:39:30.696Z,100141.28
2023-01-30T23:41:57.515Z,100141.97
2023-01-30T23:44:24.452Z,100143.94
2023-01-30T23:46:51.336Z,100141.72
2023-01-30T23:49:18.398Z,100136.69
2023-01-30T23:51:46.376Z,100150.22
2023-01-30T23:54:13.802Z,100142.88
2023-01-30T23:56:43.101Z,100139.09
2023-01-30T23:59:10.305Z,100148.81
